Time;durP1;ratioP1;P1;durP2;ratioP2;P2;SDS_P1;SDS_P2;PMS_P1;PMS_P2;Temp;Humidity;BMP_temperature;BMP_pressure;BME280_temperature;BME280_humidity;BME280_pressure;Samples;Min_cycle;Max_cycle;Signal;HPM_P1;HPM_P2
2023/08/08 00:03:22;;;;;;;0.10;0.10;;;;;;;;;;10406226;28;20030;-63
2023/08/08 00:08:22;;;;;;;0.10;0.10;;;;;;;;;;10405930;28;20531;-64
2023/08/08 00:13:23;;;;;;;0.10;0.10;;;;;;;;;;10392481;28;20113;-64
2023/08/08 00:18:23;;;;;;;0.03;0.03;;;;;;;;;;10413182;28;20116;-63
2023/08/08 00:23:23;;;;;;;0.10;0.10;;;;;;;;;;10413963;28;20075;-64
2023/08/08 00:28:23;;;;;;;0.00;0.00;;;;;;;;;;10413328;28;20030;-63
2023/08/08 00:33:23;;;;;;;0.00;0.00;;;;;;;;;;10413333;28;20385;-64
2023/08/08 00:38:24;;;;;;;0.10;0.10;;;;;;;;;;10413002;28;20032;-63
2023/08/08 00:43:24;;;;;;;0.10;0.10;;;;;;;;;;10412846;28;20365;-65
2023/08/08 00:48:24;;;;;;;0.10;0.10;;;;;;;;;;10412305;28;20025;-64
2023/08/08 00:53:26;;;;;;;0.10;0.10;;;;;;;;;;10412338;28;20472;-63
2023/08/08 00:58:26;;;;;;;0.10;0.10;;;;;;;;;;10411868;28;20028;-62
2023/08/08 01:03:27;;;;;;;0.10;0.10;;;;;;;;;;10412358;28;20391;-61
2023/08/08 01:08:31;;;;;;;0.10;0.10;;;;;;;;;;10414629;28;20049;-62
2023/08/08 01:13:32;;;;;;;0.10;0.10;;;;;;;;;;10411913;28;20074;-63
2023/08/08 01:18:32;;;;;;;0.10;0.10;;;;;;;;;;10411773;28;20109;-62
2023/08/08 01:24:11;;;;;;;0.10;0.10;;;;;;;;;;10411139;28;20021;-63
2023/08/08 01:29:11;;;;;;;0.10;0.10;;;;;;;;;;10270503;28;20046;-61
2023/08/08 01:34:12;;;;;;;0.10;0.10;;;;;;;;;;10367665;28;20057;-62
2023/08/08 01:39:14;;;;;;;0.10;0.10;;;;;;;;;;10410971;28;20025;-63
2023/08/08 01:44:15;;;;;;;0.10;0.10;;;;;;;;;;10407793;28;20038;-62
2023/08/08 01:49:15;;;;;;;0.10;0.10;;;;;;;;;;10410468;28;20036;-63
2023/08/08 01:54:15;;;;;;;0.10;0.10;;;;;;;;;;10409792;28;20028;-63
2023/08/08 01:59:16;;;;;;;0.00;0.00;;;;;;;;;;10410328;28;20535;-62
2023/08/08 02:04:16;;;;;;;0.10;0.10;;;;;;;;;;10409559;28;20392;-62
2023/08/08 02:09:16;;;;;;;0.10;0.10;;;;;;;;;;10409702;28;20104;-64
2023/08/08 02:14:16;;;;;;;0.10;0.10;;;;;;;;;;10409580;28;20017;-63
2023/08/08 02:19:16;;;;;;;0.10;0.10;;;;;;;;;;10409058;28;20014;-62
2023/08/08 02:24:16;;;;;;;0.10;0.10;;;;;;;;;;10407715;28;20619;-62
2023/08/08 02:29:17;;;;;;;0.10;0.10;;;;;;;;;;10408303;28;20019;-63
2023/08/08 02:34:17;;;;;;;0.00;0.00;;;;;;;;;;10407803;28;20032;-63
2023/08/08 02:39:17;;;;;;;0.00;0.00;;;;;;;;;;10408240;28;20029;-63
2023/08/08 02:44:19;;;;;;;0.10;0.10;;;;;;;;;;10407702;28;20021;-63
2023/08/08 02:49:19;;;;;;;0.10;0.10;;;;;;;;;;10408441;28;20083;-62
2023/08/08 02:54:19;;;;;;;0.10;0.10;;;;;;;;;;10408334;28;20072;-62
2023/08/08 02:59:20;;;;;;;0.03;0.03;;;;;;;;;;10408554;28;20456;-62
2023/08/08 03:04:20;;;;;;;0.10;0.10;;;;;;;;;;10417811;22;20081;-62
2023/08/08 03:09:21;;;;;;;0.00;0.00;;;;;;;;;;10396865;28;20017;-62
2023/08/08 03:14:21;;;;;;;0.00;0.00;;;;;;;;;;10379500;28;20029;-60
2023/08/08 03:19:21;;;;;;;0.10;0.10;;;;;;;;;;10391903;28;20025;-61
2023/08/08 03:24:21;;;;;;;0.10;0.10;;;;;;;;;;10390576;28;20034;-62
2023/08/08 03:29:22;;;;;;;0.10;0.10;;;;;;;;;;10390650;28;20037;-62
2023/08/08 03:34:22;;;;;;;0.10;0.10;;;;;;;;;;10399832;28;20017;-62
2023/08/08 03:39:22;;;;;;;0.10;0.10;;;;;;;;;;10391459;28;20026;-60
2023/08/08 03:44:22;;;;;;;0.10;0.10;;;;;;;;;;10397732;28;20053;-62
2023/08/08 03:49:22;;;;;;;0.10;0.10;;;;;;;;;;10406321;28;20025;-62
2023/08/08 03:54:23;;;;;;;0.00;0.00;;;;;;;;;;10387732;28;20021;-61
2023/08/08 03:59:23;;;;;;;0.00;0.00;;;;;;;;;;10408697;28;20056;-61
2023/08/08 04:04:23;;;;;;;0.10;0.10;;;;;;;;;;10374092;28;20028;-63
2023/08/08 04:09:23;;;;;;;0.10;0.10;;;;;;;;;;10411835;28;20017;-61
2023/08/08 04:14:23;;;;;;;0.10;0.10;;;;;;;;;;10395417;28;20048;-61
2023/08/08 04:19:23;;;;;;;0.10;0.10;;;;;;;;;;10405421;28;20464;-61
2023/08/08 04:24:24;;;;;;;0.10;0.10;;;;;;;;;;10399167;28;20075;-62
2023/08/08 04:29:24;;;;;;;0.10;0.10;;;;;;;;;;10408220;28;20433;-62
2023/08/08 04:34:24;;;;;;;0.00;0.00;;;;;;;;;;10398844;28;20053;-62
2023/08/08 04:39:25;;;;;;;0.10;0.10;;;;;;;;;;10418612;28;20044;-62
2023/08/08 04:44:25;;;;;;;0.00;0.00;;;;;;;;;;10411362;28;20384;-62
2023/08/08 04:49:25;;;;;;;0.10;0.10;;;;;;;;;;10407954;28;20013;-62
2023/08/08 04:54:25;;;;;;;0.10;0.10;;;;;;;;;;10394815;28;20034;-63
2023/08/08 04:59:25;;;;;;;0.00;0.00;;;;;;;;;;10407726;28;20026;-63
2023/08/08 05:04:25;;;;;;;0.10;0.10;;;;;;;;;;10392230;28;20507;-63
2023/08/08 05:09:28;;;;;;;0.10;0.10;;;;;;;;;;10403143;28;20014;-64
2023/08/08 05:14:29;;;;;;;0.10;0.10;;;;;;;;;;10386355;28;20022;-63
2023/08/08 05:19:29;;;;;;;0.00;0.00;;;;;;;;;;10403354;28;20036;-63
2023/08/08 05:24:29;;;;;;;0.00;0.00;;;;;;;;;;10403230;28;20117;-63
2023/08/08 05:29:29;;;;;;;0.00;0.00;;;;;;;;;;10401844;28;20562;-62
2023/08/08 05:34:29;;;;;;;0.00;0.00;;;;;;;;;;10401618;28;20018;-62
2023/08/08 05:39:30;;;;;;;0.00;0.00;;;;;;;;;;10399368;28;20024;-62
2023/08/08 05:44:30;;;;;;;0.00;0.00;;;;;;;;;;10396965;28;20055;-63
2023/08/08 05:49:31;;;;;;;0.00;0.00;;;;;;;;;;10396161;28;20358;-63
2023/08/08 05:54:31;;;;;;;0.00;0.00;;;;;;;;;;10396637;28;20025;-63
2023/08/08 05:59:31;;;;;;;0.00;0.00;;;;;;;;;;10394819;28;20079;-63
2023/08/08 06:04:31;;;;;;;0.10;0.10;;;;;;;;;;10401263;28;20013;-63
2023/08/08 06:09:32;;;;;;;0.05;0.05;;;;;;;;;;10407367;28;20029;-63
2023/08/08 06:14:32;;;;;;;0.10;0.10;;;;;;;;;;10415094;28;20113;-64
2023/08/08 06:19:32;;;;;;;0.10;0.10;;;;;;;;;;10401189;28;20018;-64
2023/08/08 06:24:33;;;;;;;0.00;0.00;;;;;;;;;;10396482;28;20025;-64
2023/08/08 06:29:33;;;;;;;0.00;0.00;;;;;;;;;;10414841;28;20383;-64
2023/08/08 06:34:33;;;;;;;0.05;0.05;;;;;;;;;;10411047;28;20104;-63
2023/08/08 06:39:34;;;;;;;0.00;0.00;;;;;;;;;;10409238;28;20018;-64
2023/08/08 06:44:40;;;;;;;0.00;0.00;;;;;;;;;;10421121;28;20300;-63
2023/08/08 06:49:40;;;;;;;0.00;0.00;;;;;;;;;;10400202;28;20030;-63
2023/08/08 06:54:40;;;;;;;0.00;0.00;;;;;;;;;;10422312;28;20026;-64
2023/08/08 06:59:41;;;;;;;0.10;0.10;;;;;;;;;;10417222;28;20025;-64
2023/08/08 07:04:41;;;;;;;0.10;0.10;;;;;;;;;;10418385;28;20030;-65
2023/08/08 07:09:41;;;;;;;0.00;0.00;;;;;;;;;;10405787;28;20014;-64
2023/08/08 07:14:42;;;;;;;0.00;0.00;;;;;;;;;;10424552;28;20112;-65
2023/08/08 07:19:42;;;;;;;0.10;0.10;;;;;;;;;;10405022;28;20025;-64
2023/08/08 07:24:43;;;;;;;0.00;0.00;;;;;;;;;;10428978;28;20028;-64
2023/08/08 07:29:43;;;;;;;0.00;0.00;;;;;;;;;;10417988;28;20013;-64
2023/08/08 07:34:43;;;;;;;0.10;0.10;;;;;;;;;;10408308;28;20030;-63
2023/08/08 07:39:43;;;;;;;0.00;0.00;;;;;;;;;;10428427;28;20074;-64
2023/08/08 07:44:43;;;;;;;0.00;0.00;;;;;;;;;;10411926;28;20032;-64
2023/08/08 07:49:43;;;;;;;0.00;0.00;;;;;;;;;;10415797;28;20022;-64
2023/08/08 07:54:44;;;;;;;0.00;0.00;;;;;;;;;;10396642;28;20026;-63
2023/08/08 07:59:44;;;;;;;0.00;0.00;;;;;;;;;;10409350;28;20481;-64
2023/08/08 08:04:44;;;;;;;0.00;0.00;;;;;;;;;;10416430;28;20024;-64
2023/08/08 08:09:45;;;;;;;0.10;0.10;;;;;;;;;;10407452;28;20026;-64
2023/08/08 08:14:45;;;;;;;0.00;0.00;;;;;;;;;;10399141;28;20365;-63
2023/08/08 08:19:45;;;;;;;0.10;0.10;;;;;;;;;;10388090;28;20017;-64
2023/08/08 08:24:45;;;;;;;0.00;0.00;;;;;;;;;;10403692;28;20020;-64
2023/08/08 08:29:46;;;;;;;0.05;0.05;;;;;;;;;;10421821;28;20103;-64
2023/08/08 08:34:46;;;;;;;0.00;0.00;;;;;;;;;;10423929;28;20425;-64
2023/08/08 08:39:46;;;;;;;0.10;0.10;;;;;;;;;;10407774;28;20022;-64
2023/08/08 08:44:47;;;;;;;0.00;0.00;;;;;;;;;;10412188;28;20017;-64
2023/08/08 08:49:47;;;;;;;0.10;0.10;;;;;;;;;;10407427;28;20037;-65
2023/08/08 08:54:47;;;;;;;0.00;0.00;;;;;;;;;;10438648;28;20013;-64
2023/08/08 08:59:47;;;;;;;0.00;0.00;;;;;;;;;;10409617;28;20021;-64
2023/08/08 09:04:48;;;;;;;0.10;0.10;;;;;;;;;;10398342;22;20049;-62
2023/08/08 09:09:48;;;;;;;0.10;0.10;;;;;;;;;;10369821;28;20034;-63
2023/08/08 09:14:53;;;;;;;0.10;0.10;;;;;;;;;;10385924;28;20040;-63
2023/08/08 09:19:54;;;;;;;0.03;0.03;;;;;;;;;;10373347;28;20477;-65
2023/08/08 09:24:55;;;;;;;0.10;0.10;;;;;;;;;;10369883;28;20026;-65
2023/08/08 09:29:55;;;;;;;0.10;0.10;;;;;;;;;;10379548;28;20014;-66
2023/08/08 09:34:55;;;;;;;0.10;0.10;;;;;;;;;;10366451;28;20503;-65
2023/08/08 09:39:59;;;;;;;0.00;0.00;;;;;;;;;;10378607;28;20500;-65
2023/08/08 09:44:59;;;;;;;0.10;0.10;;;;;;;;;;10384589;28;20388;-65
2023/08/08 09:50:00;;;;;;;0.10;0.10;;;;;;;;;;10381425;28;20029;-66
2023/08/08 09:55:02;;;;;;;0.00;0.00;;;;;;;;;;10384677;28;20049;-66
2023/08/08 10:00:04;;;;;;;0.00;0.00;;;;;;;;;;10378273;28;20025;-65
2023/08/08 10:05:05;;;;;;;0.10;0.10;;;;;;;;;;10379476;28;20033;-63
2023/08/08 10:10:06;;;;;;;0.10;0.10;;;;;;;;;;10369007;28;20388;-65
2023/08/08 10:15:07;;;;;;;0.00;0.00;;;;;;;;;;10375714;28;20120;-64
2023/08/08 10:20:11;;;;;;;0.10;0.10;;;;;;;;;;10367420;28;20530;-62
2023/08/08 10:25:25;;;;;;;0.10;0.10;;;;;;;;;;10384560;28;20504;-64
2023/08/08 10:30:25;;;;;;;0.00;0.00;;;;;;;;;;10377437;28;20048;-64
2023/08/08 10:35:34;;;;;;;0.10;0.10;;;;;;;;;;10353181;28;20061;-65
2023/08/08 10:40:34;;;;;;;0.10;0.10;;;;;;;;;;10372788;28;20070;-65
2023/08/08 10:45:35;;;;;;;0.10;0.10;;;;;;;;;;10376349;28;20433;-63
2023/08/08 10:50:39;;;;;;;0.10;0.10;;;;;;;;;;10368314;28;20396;-63
2023/08/08 10:55:39;;;;;;;0.00;0.00;;;;;;;;;;10384785;28;20037;-65
2023/08/08 11:00:40;;;;;;;0.00;0.00;;;;;;;;;;10341653;28;20039;-64
2023/08/08 11:05:44;;;;;;;0.05;0.05;;;;;;;;;;10380344;28;20021;-65
2023/08/08 11:10:44;;;;;;;0.00;0.00;;;;;;;;;;10372901;28;20018;-65
2023/08/08 11:15:45;;;;;;;0.10;0.10;;;;;;;;;;10373854;28;20361;-64
2023/08/08 11:20:45;;;;;;;0.10;0.10;;;;;;;;;;10374120;28;20070;-65
2023/08/08 11:25:45;;;;;;;0.05;0.05;;;;;;;;;;10382750;28;20017;-64
2023/08/08 11:30:45;;;;;;;0.00;0.00;;;;;;;;;;10385710;28;20006;-65
2023/08/08 11:35:46;;;;;;;0.00;0.00;;;;;;;;;;10384036;28;20022;-64
2023/08/08 11:40:47;;;;;;;0.10;0.10;;;;;;;;;;10380173;28;20021;-64
2023/08/08 11:45:49;;;;;;;0.00;0.00;;;;;;;;;;10375260;28;20016;-62
2023/08/08 11:50:49;;;;;;;0.00;0.00;;;;;;;;;;10373912;28;20017;-65
2023/08/08 11:55:49;;;;;;;0.00;0.00;;;;;;;;;;10387855;28;20049;-64
2023/08/08 12:00:50;;;;;;;0.00;0.00;;;;;;;;;;10380134;28;20087;-63
2023/08/08 12:05:51;;;;;;;0.00;0.00;;;;;;;;;;10379049;28;20044;-63
2023/08/08 12:10:56;;;;;;;0.00;0.00;;;;;;;;;;10396697;28;20021;-63
2023/08/08 12:15:58;;;;;;;0.10;0.10;;;;;;;;;;10374647;28;20022;-61
2023/08/08 12:20:58;;;;;;;0.00;0.00;;;;;;;;;;10385017;28;20102;-61
2023/08/08 12:25:59;;;;;;;0.00;0.00;;;;;;;;;;10397166;28;20067;-62
2023/08/08 12:30:59;;;;;;;0.00;0.00;;;;;;;;;;10404259;28;20080;-62
2023/08/08 12:36:00;;;;;;;0.00;0.00;;;;;;;;;;10384523;28;20018;-62
2023/08/08 12:41:00;;;;;;;0.10;0.10;;;;;;;;;;10371706;28;20037;-62
2023/08/08 12:46:01;;;;;;;0.00;0.00;;;;;;;;;;10399072;28;20021;-64
2023/08/08 12:51:01;;;;;;;0.00;0.00;;;;;;;;;;10380951;28;20021;-64
2023/08/08 12:56:01;;;;;;;0.10;0.10;;;;;;;;;;10393079;28;20064;-65
2023/08/08 13:01:01;;;;;;;0.10;0.10;;;;;;;;;;10387400;28;20022;-64
2023/08/08 13:06:02;;;;;;;0.00;0.00;;;;;;;;;;10391604;28;20025;-64
2023/08/08 13:11:02;;;;;;;0.00;0.00;;;;;;;;;;10395294;28;20041;-64
2023/08/08 13:16:03;;;;;;;0.00;0.00;;;;;;;;;;10390022;28;20364;-64
2023/08/08 13:21:03;;;;;;;0.03;0.03;;;;;;;;;;10382417;28;20020;-63
2023/08/08 13:26:03;;;;;;;0.00;0.00;;;;;;;;;;10393188;28;20020;-63
2023/08/08 13:31:03;;;;;;;0.10;0.10;;;;;;;;;;10392964;28;20029;-61
2023/08/08 13:36:04;;;;;;;0.00;0.00;;;;;;;;;;10383106;28;20018;-64
2023/08/08 13:41:04;;;;;;;0.10;0.10;;;;;;;;;;10385208;28;20022;-64
2023/08/08 13:46:07;;;;;;;0.00;0.00;;;;;;;;;;10387072;28;20416;-63
2023/08/08 13:51:07;;;;;;;0.10;0.10;;;;;;;;;;10396003;28;20021;-64
2023/08/08 13:56:08;;;;;;;0.00;0.00;;;;;;;;;;10377684;28;20088;-62
2023/08/08 14:01:08;;;;;;;0.00;0.00;;;;;;;;;;10378640;28;20104;-61
2023/08/08 14:06:09;;;;;;;0.00;0.00;;;;;;;;;;10355584;28;20100;-62
2023/08/08 14:11:09;;;;;;;0.00;0.00;;;;;;;;;;10378994;28;20483;-63
2023/08/08 14:16:10;;;;;;;0.00;0.00;;;;;;;;;;10375779;28;20054;-61
2023/08/08 14:21:10;;;;;;;0.00;0.00;;;;;;;;;;10375515;28;20033;-60
2023/08/08 14:26:11;;;;;;;0.10;0.10;;;;;;;;;;10381242;28;20010;-62
2023/08/08 14:31:11;;;;;;;0.00;0.00;;;;;;;;;;10381045;28;20286;-61
2023/08/08 14:36:11;;;;;;;0.10;0.10;;;;;;;;;;10384899;28;20392;-61
2023/08/08 14:41:11;;;;;;;0.00;0.00;;;;;;;;;;10382496;28;20089;-60
2023/08/08 14:46:11;;;;;;;0.00;0.00;;;;;;;;;;10373263;28;20029;-61
2023/08/08 14:51:16;;;;;;;0.00;0.00;;;;;;;;;;10385339;28;20018;-61
2023/08/08 14:56:16;;;;;;;0.00;0.00;;;;;;;;;;10380639;28;20022;-61
2023/08/08 15:01:16;;;;;;;0.10;0.10;;;;;;;;;;10382109;28;20018;-62
2023/08/08 15:06:16;;;;;;;0.00;0.00;;;;;;;;;;10389871;28;20018;-65
2023/08/08 15:11:17;;;;;;;0.10;0.10;;;;;;;;;;10388403;28;20030;-63
2023/08/08 15:16:17;;;;;;;0.00;0.00;;;;;;;;;;10387874;28;20033;-63
2023/08/08 15:21:19;;;;;;;0.00;0.00;;;;;;;;;;10381610;28;20116;-63
2023/08/08 15:26:22;;;;;;;0.00;0.00;;;;;;;;;;10376779;28;20028;-62
2023/08/08 15:31:22;;;;;;;0.10;0.10;;;;;;;;;;10377396;28;20428;-64
2023/08/08 15:36:22;;;;;;;0.00;0.00;;;;;;;;;;10375089;28;20084;-63
2023/08/08 15:41:22;;;;;;;0.10;0.10;;;;;;;;;;10389614;28;20028;-63
2023/08/08 15:46:22;;;;;;;0.10;0.10;;;;;;;;;;10391943;28;20579;-61
2023/08/08 15:51:22;;;;;;;0.10;0.10;;;;;;;;;;10387326;28;20461;-64
2023/08/08 15:56:23;;;;;;;0.10;0.10;;;;;;;;;;10390933;28;20048;-64
2023/08/08 16:01:23;;;;;;;0.00;0.00;;;;;;;;;;10379219;28;20028;-64
2023/08/08 16:06:23;;;;;;;0.10;0.10;;;;;;;;;;10386274;28;20032;-63
2023/08/08 16:11:23;;;;;;;0.00;0.00;;;;;;;;;;10378383;28;20105;-63
2023/08/08 16:16:23;;;;;;;0.10;0.10;;;;;;;;;;10377732;28;20104;-64
2023/08/08 16:21:24;;;;;;;0.10;0.10;;;;;;;;;;10380489;28;20648;-65
2023/08/08 16:26:24;;;;;;;0.05;0.05;;;;;;;;;;10380631;28;20018;-65
2023/08/08 16:31:24;;;;;;;0.00;0.00;;;;;;;;;;10379482;28;20109;-65
2023/08/08 16:36:24;;;;;;;0.10;0.10;;;;;;;;;;10374904;28;20760;-63
2023/08/08 16:41:24;;;;;;;0.10;0.10;;;;;;;;;;10380642;28;20017;-65
2023/08/08 16:46:24;;;;;;;0.10;0.10;;;;;;;;;;10375428;28;20022;-64
2023/08/08 16:51:25;;;;;;;0.00;0.00;;;;;;;;;;10386292;28;20500;-64
2023/08/08 17:01:33;;;;;;;0.10;0.10;;;;;;;;;;10408410;28;20111;-63
2023/08/08 17:06:33;;;;;;;0.10;0.10;;;;;;;;;;10433155;28;20033;-63
2023/08/08 17:11:33;;;;;;;0.10;0.10;;;;;;;;;;10417191;28;20017;-63
2023/08/08 17:16:33;;;;;;;0.10;0.10;;;;;;;;;;10412150;28;20079;-63
2023/08/08 17:21:33;;;;;;;0.00;0.00;;;;;;;;;;10411463;28;20030;-63
2023/08/08 17:26:34;;;;;;;0.10;0.10;;;;;;;;;;10412140;28;20026;-63
2023/08/08 17:31:35;;;;;;;0.10;0.10;;;;;;;;;;10411571;28;20029;-62
2023/08/08 17:36:35;;;;;;;0.10;0.10;;;;;;;;;;10418654;28;20017;-63
2023/08/08 17:41:35;;;;;;;0.10;0.10;;;;;;;;;;10424374;28;20025;-63
2023/08/08 17:46:35;;;;;;;0.10;0.10;;;;;;;;;;10416237;28;20017;-63
2023/08/08 17:51:36;;;;;;;0.10;0.10;;;;;;;;;;10395351;28;20024;-63
2023/08/08 17:56:36;;;;;;;0.10;0.10;;;;;;;;;;10418013;28;20360;-63
2023/08/08 18:01:36;;;;;;;0.10;0.10;;;;;;;;;;10436181;28;20408;-61
2023/08/08 18:06:38;;;;;;;0.10;0.10;;;;;;;;;;10413712;28;20400;-62
2023/08/08 18:11:38;;;;;;;0.00;0.00;;;;;;;;;;10421078;28;20116;-61
2023/08/08 18:16:38;;;;;;;0.10;0.10;;;;;;;;;;10411774;28;20092;-62
2023/08/08 18:21:38;;;;;;;0.10;0.10;;;;;;;;;;10409698;28;20026;-62
2023/08/08 18:26:39;;;;;;;0.10;0.10;;;;;;;;;;10409424;28;20078;-63
2023/08/08 18:31:39;;;;;;;0.10;0.10;;;;;;;;;;10409594;28;20021;-62
2023/08/08 18:36:39;;;;;;;0.00;0.00;;;;;;;;;;10416421;28;20029;-62
2023/08/08 18:41:39;;;;;;;0.00;0.00;;;;;;;;;;10422737;28;20017;-63
2023/08/08 18:46:40;;;;;;;0.10;0.10;;;;;;;;;;10415721;28;20032;-62
2023/08/08 18:51:40;;;;;;;0.10;0.10;;;;;;;;;;10424568;28;20100;-62
2023/08/08 18:56:40;;;;;;;0.10;0.10;;;;;;;;;;10409910;28;20026;-63
2023/08/08 19:01:41;;;;;;;0.03;0.03;;;;;;;;;;10420677;28;20112;-62
2023/08/08 19:06:41;;;;;;;0.00;0.00;;;;;;;;;;10426421;28;20036;-62
2023/08/08 19:11:41;;;;;;;0.10;0.10;;;;;;;;;;10430836;28;20033;-60
2023/08/08 19:16:41;;;;;;;0.00;0.00;;;;;;;;;;10413406;28;20020;-61
2023/08/08 19:21:41;;;;;;;0.10;0.10;;;;;;;;;;10416242;28;20033;-63
2023/08/08 19:26:42;;;;;;;0.10;0.10;;;;;;;;;;10414404;28;20025;-60
2023/08/08 19:31:42;;;;;;;0.00;0.00;;;;;;;;;;10407135;28;20066;-63
2023/08/08 19:36:42;;;;;;;0.10;0.10;;;;;;;;;;10420745;28;20028;-63
2023/08/08 19:41:42;;;;;;;0.10;0.10;;;;;;;;;;10427919;28;20032;-63
2023/08/08 19:46:42;;;;;;;0.10;0.10;;;;;;;;;;10437759;28;20044;-63
2023/08/08 19:51:42;;;;;;;0.10;0.10;;;;;;;;;;10440515;28;20483;-63
2023/08/08 19:56:43;;;;;;;0.10;0.10;;;;;;;;;;10432252;28;20025;-61
2023/08/08 20:01:43;;;;;;;0.10;0.10;;;;;;;;;;10428144;28;20476;-63
2023/08/08 20:06:43;;;;;;;0.00;0.00;;;;;;;;;;10438900;28;20025;-62
2023/08/08 20:11:43;;;;;;;0.10;0.10;;;;;;;;;;10407668;28;20460;-63
2023/08/08 20:16:43;;;;;;;0.10;0.10;;;;;;;;;;10430565;28;20394;-63
2023/08/08 20:21:44;;;;;;;0.10;0.10;;;;;;;;;;10417308;28;20460;-63
2023/08/08 20:26:44;;;;;;;0.10;0.10;;;;;;;;;;10433670;28;20501;-63
2023/08/08 20:31:44;;;;;;;0.10;0.10;;;;;;;;;;10428485;28;20021;-63
2023/08/08 20:36:44;;;;;;;0.10;0.10;;;;;;;;;;10430949;28;20022;-61
2023/08/08 20:41:44;;;;;;;0.10;0.10;;;;;;;;;;10425059;28;20049;-63
2023/08/08 20:46:44;;;;;;;0.10;0.10;;;;;;;;;;10428513;28;20363;-63
2023/08/08 20:51:45;;;;;;;0.10;0.10;;;;;;;;;;10442313;28;20048;-63
2023/08/08 20:56:53;;;;;;;0.05;0.05;;;;;;;;;;10432885;28;20018;-63
2023/08/08 21:01:54;;;;;;;0.00;0.00;;;;;;;;;;10394727;28;20017;-62
2023/08/08 21:06:54;;;;;;;0.00;0.00;;;;;;;;;;10428502;28;20009;-63
2023/08/08 21:11:55;;;;;;;0.10;0.10;;;;;;;;;;10420082;28;20530;-63
2023/08/08 21:16:55;;;;;;;0.00;0.00;;;;;;;;;;10411929;28;20014;-63
2023/08/08 21:21:57;;;;;;;0.10;0.10;;;;;;;;;;10429036;28;20044;-62
2023/08/08 21:26:57;;;;;;;0.05;0.05;;;;;;;;;;10425951;28;20022;-63
2023/08/08 21:31:57;;;;;;;0.10;0.10;;;;;;;;;;10422488;28;20043;-62
2023/08/08 21:36:57;;;;;;;0.10;0.10;;;;;;;;;;10432033;28;20025;-63
2023/08/08 21:41:57;;;;;;;0.10;0.10;;;;;;;;;;10414540;28;20096;-63
2023/08/08 21:46:57;;;;;;;0.10;0.10;;;;;;;;;;10412898;28;20104;-61
2023/08/08 21:51:58;;;;;;;0.10;0.10;;;;;;;;;;10429046;28;20024;-63
2023/08/08 21:56:58;;;;;;;0.10;0.10;;;;;;;;;;10425218;28;20017;-62
2023/08/08 22:01:58;;;;;;;0.10;0.10;;;;;;;;;;10410379;28;20075;-63
2023/08/08 22:06:58;;;;;;;0.10;0.10;;;;;;;;;;10429329;28;20102;-64
2023/08/08 22:11:58;;;;;;;0.10;0.10;;;;;;;;;;10424262;28;20045;-63
2023/08/08 22:16:59;;;;;;;0.10;0.10;;;;;;;;;;10423861;28;20048;-63
2023/08/08 22:21:59;;;;;;;0.10;0.10;;;;;;;;;;10442228;28;20472;-63
2023/08/08 22:26:59;;;;;;;0.03;0.03;;;;;;;;;;10423891;28;20517;-63
2023/08/08 22:31:59;;;;;;;0.10;0.10;;;;;;;;;;10430301;28;20738;-63
2023/08/08 22:37:00;;;;;;;0.10;0.10;;;;;;;;;;10424917;28;20036;-63
2023/08/08 22:42:00;;;;;;;0.10;0.10;;;;;;;;;;10435608;28;20391;-63
2023/08/08 22:47:00;;;;;;;0.08;0.08;;;;;;;;;;10437861;28;20384;-63
2023/08/08 22:52:00;;;;;;;0.10;0.10;;;;;;;;;;10442911;28;20017;-62
2023/08/08 22:57:00;;;;;;;0.10;0.10;;;;;;;;;;10425129;28;20031;-63
2023/08/08 23:02:01;;;;;;;0.10;0.10;;;;;;;;;;10404845;22;20041;-61
2023/08/08 23:07:01;;;;;;;0.03;0.03;;;;;;;;;;10383044;28;20030;-59
2023/08/08 23:12:01;;;;;;;0.10;0.10;;;;;;;;;;10376380;28;20080;-59
2023/08/08 23:17:02;;;;;;;0.10;0.10;;;;;;;;;;10388356;28;20116;-60
2023/08/08 23:22:02;;;;;;;0.10;0.10;;;;;;;;;;10389980;28;20030;-60
2023/08/08 23:27:03;;;;;;;0.08;0.08;;;;;;;;;;10379346;28;20014;-60
2023/08/08 23:32:03;;;;;;;0.10;0.10;;;;;;;;;;10389229;28;20026;-58
2023/08/08 23:37:03;;;;;;;0.10;0.10;;;;;;;;;;10387043;28;20100;-60
2023/08/08 23:42:04;;;;;;;0.10;0.10;;;;;;;;;;10373479;28;20022;-59
2023/08/08 23:47:05;;;;;;;0.10;0.10;;;;;;;;;;10384867;28;20029;-59
2023/08/08 23:52:05;;;;;;;0.10;0.10;;;;;;;;;;10382202;28;20030;-59
2023/08/08 23:57:06;;;;;;;0.10;0.10;;;;;;;;;;10382147;28;20025;-59
